Time;durP1;ratioP1;P1;durP2;ratioP2;P2;SDS_P1;SDS_P2;PMS_P1;PMS_P2;Temp;Humidity;BMP_temperature;BMP_pressure;BME280_temperature;BME280_humidity;BME280_pressure;Samples;Min_cycle;Max_cycle;Signal;HPM_P1;HPM_P2
2022/07/01 00:01:20;;;;;;;11.48;7.78;;;13.10;99.90;;;;;;5052058;28;20025;-57
2022/07/01 00:03:51;;;;;;;14.57;8.95;;;13.00;99.90;;;;;;5051898;28;20025;-57
2022/07/01 00:06:17;;;;;;;12.85;8.85;;;13.00;99.90;;;;;;5051628;28;20032;-57
2022/07/01 00:08:43;;;;;;;11.88;8.77;;;13.00;99.90;;;;;;5050672;28;20116;-57
2022/07/01 00:11:09;;;;;;;10.65;8.02;;;13.00;99.90;;;;;;5051841;28;20105;-57
2022/07/01 00:13:35;;;;;;;10.10;8.20;;;13.00;99.90;;;;;;5051758;28;20028;-57
2022/07/01 00:16:01;;;;;;;12.45;8.32;;;13.10;99.90;;;;;;5052030;28;20029;-57
2022/07/01 00:18:27;;;;;;;15.57;8.77;;;13.00;99.90;;;;;;5051655;28;20504;-57
2022/07/01 00:20:53;;;;;;;14.38;7.80;;;13.00;99.90;;;;;;5051732;28;20032;-57
2022/07/01 00:23:19;;;;;;;15.27;8.15;;;13.10;99.90;;;;;;5051680;28;20021;-57
2022/07/01 00:25:45;;;;;;;11.45;7.35;;;13.10;99.90;;;;;;5051610;28;20087;-58
2022/07/01 00:28:10;;;;;;;15.15;7.97;;;13.10;99.90;;;;;;5051573;28;20075;-57
2022/07/01 00:30:37;;;;;;;11.20;7.53;;;13.00;99.90;;;;;;5051169;28;20053;-58
2022/07/01 00:33:03;;;;;;;11.93;8.25;;;13.00;99.90;;;;;;5051660;28;20460;-57
2022/07/01 00:35:29;;;;;;;10.07;7.63;;;13.00;99.90;;;;;;5051241;28;20107;-56
2022/07/01 00:37:55;;;;;;;19.92;7.95;;;13.00;99.90;;;;;;5050221;28;20466;-56
2022/07/01 00:40:20;;;;;;;13.90;8.27;;;13.00;99.90;;;;;;5051386;28;20386;-56
2022/07/01 00:42:46;;;;;;;15.15;8.02;;;12.90;99.90;;;;;;5052065;28;20061;-58
2022/07/01 00:45:12;;;;;;;13.10;8.77;;;12.90;99.90;;;;;;5051283;28;20052;-57
2022/07/01 00:47:40;;;;;;;21.88;10.65;;;12.90;99.90;;;;;;5051714;28;20032;-57
2022/07/01 00:50:14;;;;;;;16.23;9.60;;;12.90;99.90;;;;;;5051530;28;20481;-57
2022/07/01 00:52:42;;;;;;;22.05;10.65;;;12.90;99.90;;;;;;5051862;28;20033;-57
2022/07/01 00:55:10;;;;;;;17.70;11.70;;;12.90;99.90;;;;;;5049991;28;20155;-56
2022/07/01 00:57:37;;;;;;;23.60;13.27;;;13.00;99.90;;;;;;5051344;28;20089;-58
2022/07/01 01:00:09;;;;;;;23.15;13.07;;;12.90;99.90;;;;;;5051812;28;20032;-57
2022/07/01 01:02:35;;;;;;;19.50;13.23;;;12.90;99.90;;;;;;5050235;28;20174;-57
2022/07/01 01:05:03;;;;;;;26.48;14.15;;;12.80;99.90;;;;;;5051285;28;20029;-57
2022/07/01 01:07:29;;;;;;;23.95;14.13;;;12.90;99.90;;;;;;5051623;28;20410;-58
2022/07/01 01:09:55;;;;;;;23.25;13.73;;;12.90;99.90;;;;;;5052206;28;20385;-59
2022/07/01 01:12:20;;;;;;;24.58;13.77;;;12.80;99.90;;;;;;5055311;28;20029;-57
2022/07/01 01:14:48;;;;;;;23.67;13.82;;;12.80;99.90;;;;;;5055472;28;20377;-57
2022/07/01 01:17:14;;;;;;;17.20;13.40;;;12.80;99.90;;;;;;5055580;28;20032;-58
2022/07/01 01:19:44;;;;;;;24.55;14.48;;;12.80;99.90;;;;;;5055108;28;20071;-57
2022/07/01 01:22:10;;;;;;;23.75;16.15;;;12.90;99.90;;;;;;5054986;28;20474;-58
2022/07/01 01:24:36;;;;;;;25.20;15.68;;;12.90;99.90;;;;;;5054905;28;20056;-58
2022/07/01 01:27:06;;;;;;;23.00;16.23;;;12.90;99.90;;;;;;5055166;28;20112;-58
2022/07/01 01:29:34;;;;;;;23.90;16.30;;;13.00;99.90;;;;;;5054991;28;20108;-58
2022/07/01 01:32:00;;;;;;;23.85;16.70;;;13.00;99.90;;;;;;5053234;28;20048;-58
2022/07/01 01:34:26;;;;;;;28.65;17.38;;;12.90;99.90;;;;;;5054541;28;20485;-58
2022/07/01 01:36:51;;;;;;;26.02;16.95;;;12.90;99.90;;;;;;5054338;28;20573;-58
2022/07/01 01:39:18;;;;;;;26.25;17.02;;;12.90;99.90;;;;;;5053139;28;20032;-58
2022/07/01 01:41:44;;;;;;;24.75;16.60;;;12.90;99.90;;;;;;5054118;28;20482;-58
2022/07/01 01:44:10;;;;;;;25.50;16.23;;;12.80;99.90;;;;;;5054384;28;20025;-57
2022/07/01 01:46:37;;;;;;;25.77;16.23;;;12.80;99.90;;;;;;5054180;28;20496;-58
2022/07/01 01:49:03;;;;;;;22.52;13.88;;;12.80;99.90;;;;;;5054632;28;20436;-57
2022/07/01 01:51:29;;;;;;;28.35;14.50;;;12.70;99.90;;;;;;5054171;28;20032;-58
2022/07/01 01:53:56;;;;;;;20.58;13.68;;;12.70;99.90;;;;;;5052972;28;20029;-57
2022/07/01 01:56:23;;;;;;;19.02;14.30;;;12.80;99.90;;;;;;5054360;28;20029;-57
2022/07/01 01:58:49;;;;;;;23.85;14.48;;;12.70;99.90;;;;;;5053057;28;20489;-57
2022/07/01 02:01:16;;;;;;;25.45;14.07;;;12.70;99.90;;;;;;5053888;28;20017;-57
2022/07/01 02:03:43;;;;;;;21.45;13.98;;;12.70;99.90;;;;;;5054060;28;20485;-58
2022/07/01 02:06:10;;;;;;;24.75;13.18;;;12.70;99.90;;;;;;5052955;28;20025;-57
2022/07/01 02:08:38;;;;;;;22.50;14.20;;;12.70;99.90;;;;;;5053790;28;20029;-57
2022/07/01 02:11:04;;;;;;;23.35;13.27;;;12.70;99.90;;;;;;5054117;28;20029;-58
2022/07/01 02:13:30;;;;;;;18.02;13.75;;;12.70;99.90;;;;;;5054045;28;20033;-58
2022/07/01 02:15:56;;;;;;;20.88;13.77;;;12.70;99.90;;;;;;5053834;28;20076;-58
2022/07/01 02:18:22;;;;;;;25.38;12.40;;;12.70;99.90;;;;;;5054234;28;20033;-58
2022/07/01 02:20:48;;;;;;;19.40;13.50;;;12.70;99.90;;;;;;5053693;28;20116;-57
2022/07/01 02:23:14;;;;;;;21.85;12.57;;;12.60;99.90;;;;;;5052663;28;20116;-58
2022/07/01 02:25:41;;;;;;;27.65;13.00;;;12.60;99.90;;;;;;5053214;28;20029;-58
2022/07/01 02:28:07;;;;;;;17.70;12.18;;;12.60;99.90;;;;;;5053887;28;20025;-58
2022/07/01 02:30:37;;;;;;;22.70;13.20;;;12.60;99.90;;;;;;5053763;28;20032;-58
2022/07/01 02:33:05;;;;;;;21.52;13.02;;;12.50;99.90;;;;;;5053933;28;20033;-58
2022/07/01 02:35:34;;;;;;;24.42;13.52;;;12.50;99.90;;;;;;5053601;28;20029;-58
2022/07/01 02:38:01;;;;;;;19.05;13.88;;;12.50;99.90;;;;;;5053849;28;20044;-58
2022/07/01 02:40:26;;;;;;;24.85;15.68;;;12.50;99.90;;;;;;5052906;28;20568;-57
2022/07/01 02:42:52;;;;;;;26.20;15.70;;;12.50;99.90;;;;;;5053372;28;20109;-56
2022/07/01 02:45:17;;;;;;;31.35;16.55;;;12.40;99.90;;;;;;5053346;28;20029;-57
2022/07/01 02:47:44;;;;;;;25.83;16.42;;;12.50;99.90;;;;;;5053259;28;20079;-57
2022/07/01 02:50:12;;;;;;;26.15;16.58;;;12.40;99.90;;;;;;5052886;28;20025;-57
2022/07/01 02:52:39;;;;;;;27.20;16.77;;;12.50;99.90;;;;;;5053176;28;20467;-57
2022/07/01 02:55:07;;;;;;;26.15;15.55;;;12.40;99.90;;;;;;5053217;28;20021;-57
2022/07/01 02:57:33;;;;;;;26.30;16.10;;;12.40;99.90;;;;;;5053062;28;20496;-57
2022/07/01 02:59:59;;;;;;;23.95;15.85;;;12.40;99.90;;;;;;5053253;28;20390;-57
2022/07/01 03:02:24;;;;;;;24.00;16.20;;;12.40;99.90;;;;;;5052535;28;20037;-57
2022/07/01 03:04:52;;;;;;;21.85;16.98;;;12.40;99.90;;;;;;5052812;28;20389;-57
2022/07/01 03:07:18;;;;;;;29.00;17.23;;;12.40;99.90;;;;;;5052894;28;20017;-56
2022/07/01 03:09:44;;;;;;;30.52;16.88;;;12.30;99.90;;;;;;5052769;28;20116;-56
2022/07/01 03:12:34;;;;;;;25.90;17.70;;;12.30;99.90;;;;;;5052592;28;20147;-56
2022/07/01 03:15:05;;;;;;;33.33;17.55;;;12.30;99.90;;;;;;5051410;28;20470;-56
2022/07/01 03:17:32;;;;;;;29.10;17.98;;;12.20;99.90;;;;;;5052455;28;20055;-56
2022/07/01 03:19:58;;;;;;;29.90;20.42;;;12.30;99.90;;;;;;5053147;28;20025;-56
2022/07/01 03:22:27;;;;;;;31.23;20.10;;;12.30;99.90;;;;;;5052480;28;20029;-56
2022/07/01 03:24:53;;;;;;;24.30;18.70;;;12.20;99.90;;;;;;5052429;28;20016;-56
2022/07/01 03:27:20;;;;;;;30.23;20.92;;;12.10;99.90;;;;;;5052329;28;20075;-56
2022/07/01 03:29:46;;;;;;;32.20;20.33;;;12.10;99.90;;;;;;5052288;28;20014;-56
2022/07/01 03:32:12;;;;;;;28.40;19.85;;;12.10;99.90;;;;;;5052102;28;20041;-56
2022/07/01 03:34:42;;;;;;;30.23;20.35;;;12.20;99.90;;;;;;5052061;28;20036;-56
2022/07/01 03:37:10;;;;;;;28.35;19.70;;;12.20;99.90;;;;;;5052550;28;20037;-56
2022/07/01 03:39:37;;;;;;;26.17;18.90;;;12.20;99.90;;;;;;5052194;28;20508;-56
2022/07/01 03:42:05;;;;;;;26.02;19.15;;;12.10;99.90;;;;;;5052260;28;20039;-56
2022/07/01 03:44:31;;;;;;;29.70;19.38;;;12.00;99.90;;;;;;5050763;28;20017;-55
2022/07/01 03:46:57;;;;;;;27.55;17.75;;;12.00;99.90;;;;;;5052300;28;20052;-56
2022/07/01 03:49:22;;;;;;;27.00;18.92;;;12.00;99.90;;;;;;5052271;28;20106;-56
2022/07/01 03:51:49;;;;;;;30.23;19.35;;;12.10;99.90;;;;;;5052026;28;20032;-56
2022/07/01 03:54:29;;;;;;;30.67;18.38;;;12.00;99.90;;;;;;5052050;28;20064;-56
2022/07/01 03:57:09;;;;;;;27.70;18.52;;;12.00;99.90;;;;;;5051939;28;20025;-56
2022/07/01 03:59:39;;;;;;;24.38;18.00;;;12.00;99.90;;;;;;5052169;28;20033;-56
2022/07/01 04:02:05;;;;;;;26.15;17.00;;;12.00;99.90;;;;;;5051711;28;20025;-56
2022/07/01 04:04:32;;;;;;;29.52;17.05;;;12.00;99.90;;;;;;5052097;28;20056;-56
2022/07/01 04:07:00;;;;;;;21.20;17.25;;;12.00;99.90;;;;;;5051456;28;20040;-56
2022/07/01 04:09:26;;;;;;;23.25;15.90;;;12.00;99.90;;;;;;5051712;28;20025;-57
2022/07/01 04:11:53;;;;;;;22.05;16.80;;;12.00;99.90;;;;;;5050732;28;20036;-57
2022/07/01 04:14:18;;;;;;;29.60;18.10;;;12.00;99.90;;;;;;5051425;28;20099;-56
2022/07/01 04:16:45;;;;;;;26.10;17.88;;;12.00;99.90;;;;;;5051507;28;20478;-56
2022/07/01 04:19:12;;;;;;;26.00;16.48;;;11.90;99.90;;;;;;5051863;28;20486;-57
2022/07/01 04:24:24;;;;;;;32.03;20.13;;;12.00;99.90;;;;;;5051711;28;20761;-56
2022/07/01 04:26:51;;;;;;;31.73;20.55;;;12.00;99.90;;;;;;5051324;28;20060;-56
2022/07/01 04:29:17;;;;;;;30.58;19.95;;;12.00;99.90;;;;;;5050074;28;20056;-57
2022/07/01 04:31:43;;;;;;;29.83;19.30;;;12.00;99.90;;;;;;5051121;28;20049;-57
2022/07/01 04:34:09;;;;;;;23.48;17.00;;;12.00;99.90;;;;;;5051336;28;20095;-56
2022/07/01 04:36:35;;;;;;;24.13;16.73;;;12.00;99.90;;;;;;5051327;28;20037;-56
2022/07/01 04:39:02;;;;;;;28.77;15.63;;;12.00;99.90;;;;;;5051640;28;20033;-56
2022/07/01 04:44:12;;;;;;;28.00;17.88;;;12.00;99.90;;;;;;5051523;28;20032;-57
2022/07/01 04:46:38;;;;;;;27.58;18.85;;;12.00;99.90;;;;;;5054473;28;20021;-57
2022/07/01 04:49:03;;;;;;;24.25;19.13;;;12.10;99.90;;;;;;5055739;28;20031;-57
2022/07/01 04:51:29;;;;;;;31.58;18.60;;;12.20;99.90;;;;;;5055525;28;20025;-57
2022/07/01 04:53:55;;;;;;;26.40;18.45;;;12.10;99.90;;;;;;5055090;28;20472;-56
2022/07/01 04:56:21;;;;;;;23.27;17.08;;;12.10;99.90;;;;;;5055126;28;20029;-56
2022/07/01 04:58:47;;;;;;;24.70;16.00;;;12.20;99.90;;;;;;5055370;28;20028;-57
2022/07/01 05:01:13;;;;;;;21.77;13.40;;;12.30;99.90;;;;;;5055383;28;20029;-57
2022/07/01 05:03:39;;;;;;;19.77;13.02;;;12.30;99.90;;;;;;5055439;28;20416;-57
2022/07/01 05:06:04;;;;;;;16.95;12.52;;;12.40;99.90;;;;;;5054808;28;20033;-57
2022/07/01 05:08:30;;;;;;;17.52;11.80;;;12.40;99.90;;;;;;5055200;28;20025;-57
2022/07/01 05:10:56;;;;;;;15.10;11.48;;;12.40;99.90;;;;;;5055515;28;20100;-57
2022/07/01 05:13:21;;;;;;;16.35;11.10;;;12.40;99.90;;;;;;5054693;28;20053;-57
2022/07/01 05:15:47;;;;;;;12.48;10.02;;;12.40;99.90;;;;;;5055106;28;20028;-57
2022/07/01 05:23:41;;;;;;;16.05;8.85;;;12.30;99.90;;;;;;5054832;28;20036;-58
2022/07/01 05:26:06;;;;;;;17.25;9.15;;;12.30;99.90;;;;;;5053760;28;20029;-57
2022/07/01 05:28:32;;;;;;;11.57;8.40;;;12.50;99.90;;;;;;5054280;28;20111;-56
2022/07/01 05:30:58;;;;;;;13.32;8.50;;;12.50;99.90;;;;;;5055236;28;20409;-57
2022/07/01 05:33:26;;;;;;;19.55;9.73;;;12.40;99.90;;;;;;5055187;28;20053;-57
2022/07/01 05:35:54;;;;;;;12.43;9.93;;;12.40;99.90;;;;;;5055153;28;20032;-57
2022/07/01 05:38:21;;;;;;;19.45;9.70;;;12.50;99.90;;;;;;5055148;28;20104;-56
2022/07/01 05:40:46;;;;;;;16.10;10.27;;;12.60;99.90;;;;;;5054250;28;20029;-56
2022/07/01 05:43:12;;;;;;;14.23;10.35;;;12.60;99.90;;;;;;5054348;28;20499;-56
2022/07/01 05:45:37;;;;;;;16.92;10.30;;;12.60;99.90;;;;;;5054028;28;20021;-56
2022/07/01 05:48:03;;;;;;;15.05;9.52;;;12.70;99.90;;;;;;5054441;28;20075;-57
2022/07/01 05:50:29;;;;;;;16.75;9.65;;;12.80;99.90;;;;;;5054093;28;20108;-57
2022/07/01 05:52:55;;;;;;;18.65;9.43;;;12.80;99.90;;;;;;5053648;28;20025;-57
2022/07/01 05:55:20;;;;;;;16.38;9.38;;;12.90;99.90;;;;;;5053642;28;20530;-57
2022/07/01 05:57:46;;;;;;;14.93;8.00;;;13.00;99.90;;;;;;5054063;28;20020;-57
2022/07/01 06:00:12;;;;;;;14.63;9.32;;;13.00;99.90;;;;;;5054099;28;20416;-57
2022/07/01 06:02:38;;;;;;;21.33;8.98;;;13.10;99.90;;;;;;5053866;28;20087;-57
2022/07/01 06:05:04;;;;;;;11.07;7.70;;;13.20;99.90;;;;;;5053446;28;20033;-57
2022/07/01 06:07:30;;;;;;;15.02;8.43;;;13.20;99.90;;;;;;5053602;28;20466;-57
2022/07/01 06:09:56;;;;;;;14.68;8.55;;;13.30;99.90;;;;;;5053756;28;20055;-57
2022/07/01 06:12:22;;;;;;;13.50;8.75;;;13.30;99.90;;;;;;5053290;28;20074;-57
2022/07/01 06:14:48;;;;;;;13.52;8.65;;;13.40;99.90;;;;;;5053376;28;20382;-57
2022/07/01 06:17:13;;;;;;;14.70;8.23;;;13.50;99.90;;;;;;5053439;28;20100;-54
2022/07/01 06:19:39;;;;;;;11.60;7.13;;;13.60;99.90;;;;;;5054031;28;20062;-54
2022/07/01 06:22:06;;;;;;;13.95;7.18;;;13.60;99.90;;;;;;5053332;28;20025;-57
2022/07/01 06:24:32;;;;;;;10.60;6.47;;;13.70;99.90;;;;;;5053202;28;20032;-58
2022/07/01 06:26:57;;;;;;;11.82;5.20;;;13.80;99.90;;;;;;5051908;28;20494;-55
2022/07/01 06:29:23;;;;;;;10.05;5.22;;;13.80;99.90;;;;;;5053215;28;20367;-55
2022/07/01 06:31:49;;;;;;;13.00;4.78;;;13.90;99.90;;;;;;5052998;28;20090;-55
2022/07/01 06:34:14;;;;;;;8.30;4.95;;;13.90;99.90;;;;;;5053241;28;20036;-55
2022/07/01 06:36:40;;;;;;;8.85;4.75;;;13.90;99.90;;;;;;5052761;28;20071;-55
2022/07/01 06:39:06;;;;;;;15.38;5.30;;;14.00;99.90;;;;;;5053544;28;20496;-55
2022/07/01 06:41:31;;;;;;;7.70;4.00;;;14.10;99.90;;;;;;5053130;28;20032;-55
2022/07/01 06:43:59;;;;;;;9.52;3.88;;;14.60;99.90;;;;;;5052638;28;20029;-55
2022/07/01 06:46:26;;;;;;;7.32;3.60;;;15.50;99.90;;;;;;5053242;28;20060;-58
2022/07/01 06:48:52;;;;;;;8.50;2.97;;;16.40;99.90;;;;;;5053980;28;20053;-59
2022/07/01 06:51:18;;;;;;;5.72;2.60;;;17.30;99.90;;;;;;5052439;28;20495;-56
2022/07/01 06:53:44;;;;;;;5.97;2.63;;;18.20;99.90;;;;;;5051547;28;20535;-59
2022/07/01 06:56:11;;;;;;;6.65;2.92;;;18.40;99.90;;;;;;5053146;28;20082;-59
2022/07/01 06:58:37;;;;;;;7.13;2.38;;;18.40;99.90;;;;;;5052771;28;20021;-59
2022/07/01 07:01:04;;;;;;;5.80;2.50;;;18.40;99.90;;;;;;5051773;28;20067;-58
2022/07/01 07:03:31;;;;;;;6.85;2.30;;;18.60;99.90;;;;;;5051517;28;20497;-59
2022/07/01 07:05:59;;;;;;;8.38;2.35;;;18.80;99.90;;;;;;5052959;28;20029;-58
2022/07/01 07:08:24;;;;;;;9.07;2.45;;;18.50;99.90;;;;;;5051698;28;20021;-59
2022/07/01 07:10:50;;;;;;;6.72;2.28;;;18.50;99.90;;;;;;5051318;28;20035;-59
2022/07/01 07:13:16;;;;;;;4.85;2.13;;;19.20;99.90;;;;;;5052780;28;20446;-58
2022/07/01 07:15:42;;;;;;;7.82;2.42;;;20.00;99.90;;;;;;5052284;28;20107;-58
2022/07/01 07:18:08;;;;;;;8.13;2.05;;;20.50;99.90;;;;;;5052279;28;20080;-59
2022/07/01 07:20:34;;;;;;;6.90;2.28;;;20.60;99.90;;;;;;5052334;28;20060;-59
2022/07/01 07:23:00;;;;;;;9.73;2.70;;;20.20;99.90;;;;;;5051924;28;20544;-58
2022/07/01 07:25:26;;;;;;;5.90;2.05;;;20.20;99.90;;;;;;5051054;28;20085;-58
2022/07/01 07:27:52;;;;;;;6.40;2.20;;;20.70;99.90;;;;;;5052562;28;20500;-59
2022/07/01 07:30:17;;;;;;;5.53;2.10;;;20.30;99.90;;;;;;5051812;28;20511;-59
2022/07/01 07:32:44;;;;;;;7.10;1.80;;;21.20;99.90;;;;;;5052520;28;20059;-59
2022/07/01 07:35:10;;;;;;;6.95;1.80;;;21.00;99.90;;;;;;5051800;28;20021;-59
2022/07/01 07:37:36;;;;;;;8.30;2.10;;;21.00;99.90;;;;;;5051135;28;20425;-58
2022/07/01 07:40:06;;;;;;;5.88;1.90;;;21.10;99.90;;;;;;5052068;28;20107;-58
2022/07/01 07:42:32;;;;;;;5.47;2.20;;;21.60;99.90;;;;;;5051733;28;20032;-58
2022/07/01 07:45:01;;;;;;;5.75;1.75;;;22.30;99.90;;;;;;5051898;28;20398;-58
2022/07/01 07:47:26;;;;;;;5.85;1.77;;;20.80;99.90;;;;;;5051734;28;20025;-56
2022/07/01 07:49:52;;;;;;;6.80;1.90;;;19.00;99.90;;;;;;5051884;28;20546;-57
2022/07/01 07:52:18;;;;;;;4.40;2.00;;;18.30;99.90;;;;;;5051582;28;20036;-57
2022/07/01 07:54:43;;;;;;;8.00;1.92;;;18.40;99.90;;;;;;5051292;28;20021;-56
2022/07/01 07:57:09;;;;;;;7.20;1.98;;;18.20;99.90;;;;;;5051464;28;20070;-57
2022/07/01 07:59:35;;;;;;;8.93;2.40;;;18.00;99.90;;;;;;5051518;28;20040;-57
2022/07/01 08:02:01;;;;;;;8.68;2.22;;;17.50;99.90;;;;;;5051684;28;20154;-57
2022/07/01 08:04:27;;;;;;;5.20;2.00;;;18.30;99.90;;;;;;5051328;28;20037;-58
2022/07/01 08:06:53;;;;;;;8.35;2.00;;;19.10;99.90;;;;;;5051640;28;20070;-59
2022/07/01 08:09:18;;;;;;;10.85;2.50;;;19.60;99.90;;;;;;5050632;28;20033;-59
2022/07/01 08:11:44;;;;;;;4.00;1.45;;;20.30;99.90;;;;;;5051513;28;20025;-59
2022/07/01 08:14:10;;;;;;;3.45;1.30;;;21.10;99.90;;;;;;5051304;28;20543;-58
2022/07/01 08:16:36;;;;;;;6.80;1.67;;;21.10;99.90;;;;;;5051139;28;20100;-58
2022/07/01 08:19:02;;;;;;;5.10;1.48;;;20.20;99.90;;;;;;5051200;28;20033;-58
2022/07/01 08:21:28;;;;;;;5.25;1.60;;;20.00;99.90;;;;;;5051421;28;20086;-58
2022/07/01 08:23:54;;;;;;;4.70;1.70;;;19.70;99.90;;;;;;5051106;28;20497;-58
2022/07/01 08:26:20;;;;;;;5.63;1.55;;;19.30;99.90;;;;;;5051178;28;20059;-58
2022/07/01 08:28:46;;;;;;;5.60;1.60;;;18.70;99.90;;;;;;5051191;28;20491;-56
2022/07/01 08:31:12;;;;;;;5.35;1.40;;;18.80;99.90;;;;;;5050501;28;20060;-58
2022/07/01 08:33:37;;;;;;;6.88;1.60;;;19.80;99.90;;;;;;5051197;28;20029;-59
2022/07/01 08:36:05;;;;;;;6.25;1.50;;;19.90;99.90;;;;;;5051073;28;20025;-58
2022/07/01 08:38:31;;;;;;;9.27;1.70;;;18.80;99.90;;;;;;5051275;28;20025;-56
2022/07/01 08:40:56;;;;;;;5.03;1.50;;;18.90;99.90;;;;;;5050962;28;20028;-56
2022/07/01 08:43:22;;;;;;;6.10;1.20;;;20.00;99.90;;;;;;5049266;28;20029;-56
2022/07/01 08:45:50;;;;;;;4.25;1.58;;;20.40;99.90;;;;;;5050722;28;20036;-56
2022/07/01 08:48:16;;;;;;;5.45;1.38;;;19.90;99.90;;;;;;5051415;28;20492;-56
2022/07/01 08:50:41;;;;;;;6.93;1.60;;;20.20;99.90;;;;;;5050578;28;20107;-58
2022/07/01 08:53:09;;;;;;;4.70;1.10;;;20.90;99.90;;;;;;5051833;28;20029;-58
2022/07/01 08:56:40;;;;;;;5.68;1.17;;;21.70;99.90;;;;;;5051289;28;20516;-59
2022/07/01 08:58:22;;;;;;;3.35;0.70;;;21.10;99.90;;;;;;5050847;28;20044;-58
2022/07/01 09:00:47;;;;;;;5.55;0.98;;;21.40;99.90;;;;;;5050775;28;20040;-58
2022/07/01 09:03:13;;;;;;;4.70;0.80;;;21.50;99.90;;;;;;5050943;28;20040;-58
2022/07/01 09:05:47;;;;;;;4.78;1.08;;;21.30;99.90;;;;;;5049075;28;20125;-58
2022/07/01 09:08:12;;;;;;;5.25;1.00;;;21.50;99.90;;;;;;5051182;28;20017;-58
2022/07/01 09:10:38;;;;;;;10.00;1.02;;;21.30;99.90;;;;;;5050764;28;20378;-58
2022/07/01 09:13:10;;;;;;;5.22;1.38;;;21.00;99.90;;;;;;5050472;28;20055;-56
2022/07/01 09:15:37;;;;;;;4.00;1.35;;;19.90;99.90;;;;;;5050960;28;20033;-56
2022/07/01 09:52:10;;;;;;;4.57;1.40;;;20.40;99.90;;;;;;5049262;28;20050;-58
2022/07/01 09:54:36;;;;;;;5.97;0.98;;;21.10;99.90;;;;;;5053748;28;20252;-58
2022/07/01 09:57:02;;;;;;;2.63;1.08;;;21.60;99.90;;;;;;5053544;28;20029;-58
2022/07/01 09:59:28;;;;;;;5.80;1.65;;;21.50;99.90;;;;;;5052798;28;20401;-58
2022/07/01 10:01:54;;;;;;;2.35;1.00;;;21.90;99.90;;;;;;5053675;28;20108;-58
2022/07/01 10:04:20;;;;;;;4.22;1.00;;;21.00;99.90;;;;;;5053391;28;20090;-58
2022/07/01 10:07:06;;;;;;;6.75;1.10;;;20.50;99.90;;;;;;5053504;28;20121;-57
2022/07/01 10:09:31;;;;;;;3.47;1.25;;;21.10;99.90;;;;;;5054054;28;20090;-59
2022/07/01 10:12:12;;;;;;;2.75;0.73;;;20.40;99.90;;;;;;5053963;28;20021;-57
2022/07/01 10:14:39;;;;;;;5.45;0.73;;;20.10;99.90;;;;;;5054024;28;20029;-57
2022/07/01 10:17:06;;;;;;;4.10;0.60;;;20.50;99.90;;;;;;5053554;28;20082;-59
2022/07/01 10:19:33;;;;;;;2.83;0.63;;;21.50;99.90;;;;;;5054494;28;20063;-58
2022/07/01 10:22:24;;;;;;;2.85;0.77;;;21.60;99.90;;;;;;5053225;28;20031;-58
2022/07/01 10:24:50;;;;;;;1.83;0.60;;;21.70;99.90;;;;;;5053794;28;20485;-58
2022/07/01 10:27:21;;;;;;;2.05;0.50;;;21.30;99.90;;;;;;5053718;28;20033;-58
2022/07/01 10:29:47;;;;;;;2.80;0.60;;;20.80;99.90;;;;;;5053438;28;20025;-57
2022/07/01 10:32:22;;;;;;;2.58;0.60;;;21.50;99.90;;;;;;5053080;28;20021;-57
2022/07/01 10:34:48;;;;;;;5.13;0.73;;;21.60;99.90;;;;;;5053186;28;20090;-57
2022/07/01 10:37:17;;;;;;;4.47;0.85;;;21.60;99.90;;;;;;5053193;28;20112;-58
2022/07/01 10:40:00;;;;;;;2.78;0.70;;;21.00;99.90;;;;;;5052934;28;20029;-58
2022/07/01 10:42:30;;;;;;;7.57;0.73;;;21.20;99.90;;;;;;5052017;28;20064;-58
2022/07/01 10:45:10;;;;;;;1.95;0.73;;;22.20;99.90;;;;;;5052591;28;20029;-58
2022/07/01 10:47:38;;;;;;;2.83;0.77;;;21.80;99.80;;;;;;5053793;28;20051;-58
2022/07/01 10:50:08;;;;;;;3.03;0.60;;;21.70;99.90;;;;;;5052807;28;20025;-58
2022/07/01 10:52:34;;;;;;;2.78;0.70;;;22.50;99.90;;;;;;5052934;28;20041;-58
2022/07/01 10:55:02;;;;;;;4.15;0.80;;;22.30;99.60;;;;;;5052658;28;20024;-58
2022/07/01 10:57:30;;;;;;;3.25;0.77;;;22.20;99.60;;;;;;5052497;28;20033;-58
2022/07/01 11:00:19;;;;;;;3.45;0.88;;;22.10;99.10;;;;;;5053007;28;20029;-58
2022/07/01 11:02:45;;;;;;;2.83;0.60;;;22.00;99.90;;;;;;5052135;28;20497;-58
2022/07/01 11:05:13;;;;;;;3.40;0.73;;;22.60;98.20;;;;;;5052948;28;20079;-58
2022/07/01 11:07:42;;;;;;;4.55;0.82;;;22.60;97.90;;;;;;5052774;28;20045;-58
2022/07/01 11:10:13;;;;;;;3.72;0.73;;;22.80;98.30;;;;;;5052826;28;20033;-58
2022/07/01 11:12:40;;;;;;;4.78;0.90;;;23.00;97.50;;;;;;5052349;28;20021;-58
2022/07/01 11:15:07;;;;;;;1.63;0.60;;;22.80;98.90;;;;;;5052896;28;20028;-58
2022/07/01 11:17:34;;;;;;;3.20;0.60;;;22.50;98.20;;;;;;5052893;28;20122;-58
2022/07/01 11:20:04;;;;;;;3.40;0.70;;;21.70;99.40;;;;;;5052290;28;20045;-58
2022/07/01 11:22:34;;;;;;;3.30;0.80;;;21.10;99.90;;;;;;5052117;28;20029;-58
2022/07/01 11:25:06;;;;;;;3.85;0.70;;;20.70;99.90;;;;;;5052408;28;20392;-60
2022/07/01 11:27:33;;;;;;;2.80;0.88;;;21.00;99.90;;;;;;5052407;28;20486;-58
2022/07/01 11:30:01;;;;;;;4.60;0.52;;;21.50;99.90;;;;;;5052224;28;20037;-58
2022/07/01 11:32:37;;;;;;;2.78;0.80;;;21.70;98.50;;;;;;5051818;28;20021;-57
2022/07/01 11:40:39;;;;;;;4.45;0.75;;;23.50;96.10;;;;;;5032049;28;20040;-58
2022/07/01 11:43:22;;;;;;;3.45;0.57;;;23.40;94.30;;;;;;5051922;28;20048;-58
2022/07/01 11:45:48;;;;;;;3.33;0.68;;;22.80;95.40;;;;;;5052137;28;20032;-59
2022/07/01 11:48:28;;;;;;;2.97;0.65;;;22.20;97.10;;;;;;5051986;28;20029;-59
2022/07/01 11:50:54;;;;;;;2.47;0.55;;;22.40;97.20;;;;;;5051436;28;20045;-58
2022/07/01 11:53:20;;;;;;;3.20;0.60;;;23.00;96.70;;;;;;5051603;28;20051;-58
2022/07/01 11:55:45;;;;;;;2.50;0.80;;;22.90;96.10;;;;;;5051654;28;20359;-59
2022/07/01 11:58:11;;;;;;;4.10;0.57;;;22.80;96.40;;;;;;5050175;28;20033;-58
2022/07/01 12:00:37;;;;;;;5.15;0.70;;;23.10;97.10;;;;;;5051348;28;20086;-58
2022/07/01 12:03:03;;;;;;;9.38;0.73;;;23.10;98.60;;;;;;5051921;28;20086;-58
2022/07/01 12:05:29;;;;;;;4.18;1.00;;;23.80;94.90;;;;;;5051397;28;20576;-58
2022/07/01 12:07:55;;;;;;;4.07;0.70;;;23.60;95.00;;;;;;5050195;28;20485;-59
2022/07/01 12:10:26;;;;;;;4.13;0.80;;;23.00;95.40;;;;;;5051390;28;20036;-57
2022/07/01 12:12:51;;;;;;;4.20;1.10;;;22.10;97.60;;;;;;5051220;28;20099;-59
2022/07/01 12:15:17;;;;;;;1.67;0.50;;;22.20;98.80;;;;;;5049806;28;20124;-58
2022/07/01 12:17:43;;;;;;;2.70;0.50;;;21.90;97.70;;;;;;5051735;28;20079;-58
2022/07/01 12:20:09;;;;;;;6.32;0.73;;;21.50;96.40;;;;;;5051672;28;20074;-58
2022/07/01 12:22:34;;;;;;;2.35;0.50;;;21.90;96.40;;;;;;5051414;28;20029;-58
2022/07/01 12:25:11;;;;;;;1.27;0.50;;;21.60;98.50;;;;;;5051407;28;20028;-58
2022/07/01 12:27:38;;;;;;;3.28;0.60;;;21.30;97.80;;;;;;5050733;28;20021;-58
2022/07/01 12:30:06;;;;;;;7.70;1.20;;;21.00;99.40;;;;;;5049580;28;20053;-57
2022/07/01 12:32:36;;;;;;;2.53;0.65;;;21.00;99.90;;;;;;5050816;28;20493;-57
2022/07/01 12:35:05;;;;;;;3.92;0.75;;;20.80;99.90;;;;;;5050927;28;20025;-58
2022/07/01 12:37:35;;;;;;;3.28;0.68;;;20.70;99.90;;;;;;5050891;28;20515;-58
2022/07/01 12:40:20;;;;;;;4.28;0.60;;;20.70;99.90;;;;;;5051083;28;20033;-58
2022/07/01 12:42:45;;;;;;;4.72;0.63;;;20.70;99.90;;;;;;5049686;28;20025;-58
2022/07/01 12:45:16;;;;;;;2.47;0.68;;;20.40;99.90;;;;;;5050602;28;20108;-58
2022/07/01 12:47:47;;;;;;;5.70;0.88;;;20.40;99.90;;;;;;5050540;28;20482;-58
2022/07/01 12:50:17;;;;;;;2.85;0.80;;;20.40;99.90;;;;;;5051257;28;20401;-58
2022/07/01 12:53:00;;;;;;;5.88;0.60;;;20.60;99.90;;;;;;5051121;28;20059;-58
2022/07/01 12:55:31;;;;;;;0.95;0.50;;;20.40;99.90;;;;;;5049616;28;20478;-58
2022/07/01 12:58:00;;;;;;;4.30;0.80;;;20.00;99.90;;;;;;5051165;28;20017;-58
2022/07/01 13:00:27;;;;;;;5.45;0.90;;;19.90;99.90;;;;;;5051061;28;20052;-58
2022/07/01 13:02:56;;;;;;;3.95;0.95;;;19.80;99.90;;;;;;5051036;28;20025;-57
2022/07/01 13:05:22;;;;;;;5.55;0.82;;;19.80;99.90;;;;;;5051057;28;20389;-58
2022/07/01 13:07:48;;;;;;;3.85;1.17;;;19.90;99.90;;;;;;5054535;28;20024;-58
2022/07/01 13:10:15;;;;;;;4.50;1.20;;;20.00;99.90;;;;;;5055533;28;20025;-58
2022/07/01 13:12:42;;;;;;;3.25;0.90;;;20.10;99.90;;;;;;5054531;28;20071;-58
2022/07/01 13:15:08;;;;;;;7.90;1.00;;;20.20;99.90;;;;;;5054619;28;20074;-59
2022/07/01 13:17:33;;;;;;;6.47;1.20;;;20.60;99.90;;;;;;5054734;28;20047;-58
2022/07/01 13:19:59;;;;;;;3.28;0.75;;;21.00;99.90;;;;;;5054694;28;20033;-58
2022/07/01 13:22:25;;;;;;;5.70;1.13;;;21.40;99.90;;;;;;5054505;28;20040;-59
2022/07/01 13:24:51;;;;;;;4.47;0.93;;;21.90;99.90;;;;;;5054288;28;20047;-59
2022/07/01 13:27:19;;;;;;;4.90;1.00;;;22.40;99.90;;;;;;5055283;28;20078;-59
2022/07/01 13:29:44;;;;;;;5.30;1.13;;;22.50;99.90;;;;;;5054475;28;20025;-59